sensor_id;sensor_type;location;lat;lon;timestamp;P1;durP1;ratioP1;P2;durP2;ratioP2
73264;SDS011;76371;51.008;14.088;2024-03-25T00:01:29;2.95;;;1.42;;
73264;SDS011;76371;51.008;14.088;2024-03-25T00:03:54;2.46;;;1.40;;
73264;SDS011;76371;51.008;14.088;2024-03-25T00:06:19;3.76;;;1.46;;
73264;SDS011;76371;51.008;14.088;2024-03-25T00:08:47;2.00;;;1.10;;
73264;SDS011;76371;51.008;14.088;2024-03-25T00:11:19;2.20;;;1.38;;
73264;SDS011;76371;51.008;14.088;2024-03-25T00:13:44;3.83;;;1.65;;
73264;SDS011;76371;51.008;14.088;2024-03-25T00:16:10;4.20;;;1.65;;
73264;SDS011;76371;51.008;14.088;2024-03-25T00:18:35;2.17;;;1.50;;
73264;SDS011;76371;51.008;14.088;2024-03-25T00:21:00;2.85;;;1.40;;
73264;SDS011;76371;51.008;14.088;2024-03-25T00:23:25;3.50;;;1.56;;
73264;SDS011;76371;51.008;14.088;2024-03-25T00:25:51;4.57;;;1.40;;
73264;SDS011;76371;51.008;14.088;2024-03-25T00:28:16;2.80;;;1.33;;
73264;SDS011;76371;51.008;14.088;2024-03-25T00:30:42;3.13;;;1.73;;
73264;SDS011;76371;51.008;14.088;2024-03-25T00:33:07;3.10;;;1.72;;
73264;SDS011;76371;51.008;14.088;2024-03-25T00:35:32;3.50;;;2.08;;
73264;SDS011;76371;51.008;14.088;2024-03-25T00:37:58;2.53;;;1.80;;
73264;SDS011;76371;51.008;14.088;2024-03-25T00:40:23;5.03;;;1.85;;
73264;SDS011;76371;51.008;14.088;2024-03-25T00:42:49;3.88;;;1.92;;
73264;SDS011;76371;51.008;14.088;2024-03-25T00:45:14;3.94;;;1.88;;
73264;SDS011;76371;51.008;14.088;2024-03-25T00:47:39;4.57;;;2.60;;
73264;SDS011;76371;51.008;14.088;2024-03-25T00:50:04;4.12;;;2.32;;
73264;SDS011;76371;51.008;14.088;2024-03-25T00:52:30;4.60;;;2.13;;
73264;SDS011;76371;51.008;14.088;2024-03-25T00:54:55;3.53;;;1.98;;
73264;SDS011;76371;51.008;14.088;2024-03-25T00:57:20;4.55;;;1.67;;
73264;SDS011;76371;51.008;14.088;2024-03-25T00:59:45;5.88;;;2.13;;
73264;SDS011;76371;51.008;14.088;2024-03-25T01:02:10;4.47;;;1.63;;
73264;SDS011;76371;51.008;14.088;2024-03-25T01:04:35;3.57;;;1.80;;
73264;SDS011;76371;51.008;14.088;2024-03-25T01:07:01;2.65;;;1.60;;
73264;SDS011;76371;51.008;14.088;2024-03-25T01:09:26;2.93;;;1.67;;
73264;SDS011;76371;51.008;14.088;2024-03-25T01:11:51;4.43;;;1.60;;
73264;SDS011;76371;51.008;14.088;2024-03-25T01:14:16;5.72;;;2.10;;
73264;SDS011;76371;51.008;14.088;2024-03-25T01:16:41;3.13;;;1.77;;
73264;SDS011;76371;51.008;14.088;2024-03-25T01:19:08;3.80;;;1.53;;
73264;SDS011;76371;51.008;14.088;2024-03-25T01:21:33;3.20;;;1.43;;
73264;SDS011;76371;51.008;14.088;2024-03-25T01:23:58;4.58;;;1.80;;
73264;SDS011;76371;51.008;14.088;2024-03-25T01:26:23;3.16;;;1.94;;
73264;SDS011;76371;51.008;14.088;2024-03-25T01:28:48;2.10;;;1.40;;
73264;SDS011;76371;51.008;14.088;2024-03-25T01:31:14;2.08;;;1.22;;
73264;SDS011;76371;51.008;14.088;2024-03-25T01:33:39;4.40;;;1.66;;
73264;SDS011;76371;51.008;14.088;2024-03-25T01:36:04;2.33;;;1.60;;
73264;SDS011;76371;51.008;14.088;2024-03-25T01:38:30;2.37;;;1.63;;
73264;SDS011;76371;51.008;14.088;2024-03-25T01:40:55;5.17;;;1.70;;
73264;SDS011;76371;51.008;14.088;2024-03-25T01:43:22;3.03;;;1.50;;
73264;SDS011;76371;51.008;14.088;2024-03-25T01:45:47;4.45;;;1.67;;
73264;SDS011;76371;51.008;14.088;2024-03-25T01:48:12;3.30;;;1.82;;
73264;SDS011;76371;51.008;14.088;2024-03-25T01:50:42;6.43;;;2.73;;
73264;SDS011;76371;51.008;14.088;2024-03-25T01:53:08;4.33;;;2.53;;
73264;SDS011;76371;51.008;14.088;2024-03-25T01:55:34;4.85;;;3.25;;
73264;SDS011;76371;51.008;14.088;2024-03-25T01:58:00;4.10;;;2.17;;
73264;SDS011;76371;51.008;14.088;2024-03-25T02:00:25;5.30;;;1.50;;
73264;SDS011;76371;51.008;14.088;2024-03-25T02:02:51;3.53;;;1.63;;
73264;SDS011;76371;51.008;14.088;2024-03-25T02:05:17;8.67;;;3.50;;
73264;SDS011;76371;51.008;14.088;2024-03-25T02:07:42;3.13;;;1.67;;
73264;SDS011;76371;51.008;14.088;2024-03-25T02:10:08;7.37;;;2.70;;
73264;SDS011;76371;51.008;14.088;2024-03-25T02:12:40;1.92;;;1.05;;
73264;SDS011;76371;51.008;14.088;2024-03-25T02:15:05;4.80;;;1.97;;
73264;SDS011;76371;51.008;14.088;2024-03-25T02:17:30;2.20;;;1.20;;
73264;SDS011;76371;51.008;14.088;2024-03-25T02:19:56;1.93;;;1.27;;
73264;SDS011;76371;51.008;14.088;2024-03-25T02:22:21;1.90;;;1.20;;
73264;SDS011;76371;51.008;14.088;2024-03-25T02:24:46;2.87;;;1.47;;
73264;SDS011;76371;51.008;14.088;2024-03-25T02:27:14;2.63;;;1.73;;
73264;SDS011;76371;51.008;14.088;2024-03-25T02:29:40;2.27;;;1.23;;
73264;SDS011;76371;51.008;14.088;2024-03-25T02:32:06;2.40;;;1.10;;
73264;SDS011;76371;51.008;14.088;2024-03-25T02:34:31;1.93;;;1.17;;
73264;SDS011;76371;51.008;14.088;2024-03-25T02:36:56;2.64;;;1.42;;
73264;SDS011;76371;51.008;14.088;2024-03-25T02:39:22;2.10;;;0.90;;
73264;SDS011;76371;51.008;14.088;2024-03-25T02:41:49;2.27;;;1.10;;
73264;SDS011;76371;51.008;14.088;2024-03-25T02:44:14;1.73;;;1.20;;
73264;SDS011;76371;51.008;14.088;2024-03-25T02:46:40;2.80;;;1.63;;
73264;SDS011;76371;51.008;14.088;2024-03-25T02:49:05;4.20;;;2.07;;
73264;SDS011;76371;51.008;14.088;2024-03-25T02:51:30;3.14;;;1.66;;
73264;SDS011;76371;51.008;14.088;2024-03-25T02:53:55;2.84;;;1.98;;
73264;SDS011;76371;51.008;14.088;2024-03-25T02:56:20;5.52;;;2.36;;
73264;SDS011;76371;51.008;14.088;2024-03-25T02:58:46;4.80;;;2.83;;
73264;SDS011;76371;51.008;14.088;2024-03-25T03:01:11;4.47;;;2.30;;
73264;SDS011;76371;51.008;14.088;2024-03-25T03:03:36;4.28;;;2.88;;
73264;SDS011;76371;51.008;14.088;2024-03-25T03:06:01;3.53;;;2.37;;
73264;SDS011;76371;51.008;14.088;2024-03-25T03:08:26;4.00;;;2.20;;
73264;SDS011;76371;51.008;14.088;2024-03-25T03:10:52;5.17;;;2.77;;
73264;SDS011;76371;51.008;14.088;2024-03-25T03:13:17;4.70;;;2.40;;
73264;SDS011;76371;51.008;14.088;2024-03-25T03:15:45;4.38;;;2.48;;
73264;SDS011;76371;51.008;14.088;2024-03-25T03:18:10;5.40;;;2.70;;
73264;SDS011;76371;51.008;14.088;2024-03-25T03:20:36;6.80;;;2.63;;
73264;SDS011;76371;51.008;14.088;2024-03-25T03:23:01;3.17;;;2.07;;
73264;SDS011;76371;51.008;14.088;2024-03-25T03:25:26;4.64;;;2.96;;
73264;SDS011;76371;51.008;14.088;2024-03-25T03:27:51;6.50;;;3.90;;
73264;SDS011;76371;51.008;14.088;2024-03-25T03:30:16;8.40;;;3.30;;
73264;SDS011;76371;51.008;14.088;2024-03-25T03:32:41;6.63;;;3.10;;
73264;SDS011;76371;51.008;14.088;2024-03-25T03:35:07;6.68;;;3.26;;
73264;SDS011;76371;51.008;14.088;2024-03-25T03:37:32;8.30;;;3.67;;
73264;SDS011;76371;51.008;14.088;2024-03-25T03:39:57;4.60;;;3.00;;
73264;SDS011;76371;51.008;14.088;2024-03-25T03:42:22;7.08;;;3.02;;
73264;SDS011;76371;51.008;14.088;2024-03-25T03:44:47;7.15;;;3.88;;
73264;SDS011;76371;51.008;14.088;2024-03-25T03:47:12;5.07;;;3.20;;
73264;SDS011;76371;51.008;14.088;2024-03-25T03:49:38;7.48;;;3.26;;
73264;SDS011;76371;51.008;14.088;2024-03-25T03:52:03;7.33;;;3.87;;
73264;SDS011;76371;51.008;14.088;2024-03-25T03:54:28;6.30;;;3.47;;
73264;SDS011;76371;51.008;14.088;2024-03-25T03:56:53;7.67;;;3.57;;
73264;SDS011;76371;51.008;14.088;2024-03-25T03:59:18;6.28;;;3.52;;
73264;SDS011;76371;51.008;14.088;2024-03-25T04:01:44;5.38;;;3.24;;
73264;SDS011;76371;51.008;14.088;2024-03-25T04:04:09;6.27;;;3.73;;
73264;SDS011;76371;51.008;14.088;2024-03-25T04:06:35;8.90;;;4.10;;
73264;SDS011;76371;51.008;14.088;2024-03-25T04:09:00;6.70;;;2.78;;
73264;SDS011;76371;51.008;14.088;2024-03-25T04:11:25;8.27;;;3.58;;
73264;SDS011;76371;51.008;14.088;2024-03-25T04:13:50;7.10;;;3.33;;
73264;SDS011;76371;51.008;14.088;2024-03-25T04:16:16;5.62;;;3.70;;
73264;SDS011;76371;51.008;14.088;2024-03-25T04:18:41;8.16;;;4.22;;
73264;SDS011;76371;51.008;14.088;2024-03-25T04:21:11;6.63;;;3.25;;
73264;SDS011;76371;51.008;14.088;2024-03-25T04:23:36;7.50;;;2.85;;
73264;SDS011;76371;51.008;14.088;2024-03-25T04:26:01;13.60;;;3.64;;
73264;SDS011;76371;51.008;14.088;2024-03-25T04:28:27;6.60;;;3.72;;
73264;SDS011;76371;51.008;14.088;2024-03-25T04:30:52;5.78;;;3.52;;
73264;SDS011;76371;51.008;14.088;2024-03-25T04:33:18;6.73;;;3.33;;
73264;SDS011;76371;51.008;14.088;2024-03-25T04:35:43;6.17;;;3.10;;
73264;SDS011;76371;51.008;14.088;2024-03-25T04:38:09;9.07;;;3.57;;
73264;SDS011;76371;51.008;14.088;2024-03-25T04:40:34;5.00;;;3.08;;
73264;SDS011;76371;51.008;14.088;2024-03-25T04:43:00;6.65;;;3.33;;
73264;SDS011;76371;51.008;14.088;2024-03-25T04:45:25;6.42;;;3.64;;
73264;SDS011;76371;51.008;14.088;2024-03-25T05:33:36;4.38;;;2.15;;
73264;SDS011;76371;51.008;14.088;2024-03-25T05:36:02;5.00;;;2.45;;
73264;SDS011;76371;51.008;14.088;2024-03-25T05:38:28;6.45;;;2.80;;
73264;SDS011;76371;51.008;14.088;2024-03-25T05:40:53;5.07;;;2.30;;
73264;SDS011;76371;51.008;14.088;2024-03-25T05:43:18;6.53;;;2.78;;
73264;SDS011;76371;51.008;14.088;2024-03-25T05:45:54;6.40;;;2.25;;
73264;SDS011;76371;51.008;14.088;2024-03-25T05:48:19;6.78;;;2.65;;
73264;SDS011;76371;51.008;14.088;2024-03-25T05:50:45;7.45;;;2.30;;
73264;SDS011;76371;51.008;14.088;2024-03-25T05:53:10;3.97;;;2.40;;
73264;SDS011;76371;51.008;14.088;2024-03-25T05:55:35;4.40;;;2.60;;
73264;SDS011;76371;51.008;14.088;2024-03-25T05:58:00;6.67;;;3.57;;
73264;SDS011;76371;51.008;14.088;2024-03-25T06:00:25;6.56;;;2.44;;
73264;SDS011;76371;51.008;14.088;2024-03-25T06:02:51;7.55;;;2.53;;
73264;SDS011;76371;51.008;14.088;2024-03-25T06:05:16;4.82;;;2.42;;
73264;SDS011;76371;51.008;14.088;2024-03-25T06:07:44;4.48;;;2.80;;
73264;SDS011;76371;51.008;14.088;2024-03-25T06:10:09;5.53;;;3.45;;
73264;SDS011;76371;51.008;14.088;2024-03-25T06:12:34;5.40;;;2.95;;
73264;SDS011;76371;51.008;14.088;2024-03-25T06:15:00;5.95;;;2.83;;
73264;SDS011;76371;51.008;14.088;2024-03-25T06:17:25;3.96;;;2.58;;
73264;SDS011;76371;51.008;14.088;2024-03-25T06:19:50;3.50;;;2.58;;
73264;SDS011;76371;51.008;14.088;2024-03-25T06:22:16;7.22;;;2.28;;
73264;SDS011;76371;51.008;14.088;2024-03-25T06:24:42;4.68;;;2.52;;
73264;SDS011;76371;51.008;14.088;2024-03-25T06:27:08;4.85;;;2.20;;
73264;SDS011;76371;51.008;14.088;2024-03-25T06:29:33;4.72;;;2.28;;
73264;SDS011;76371;51.008;14.088;2024-03-25T06:32:00;4.72;;;2.60;;
73264;SDS011;76371;51.008;14.088;2024-03-25T06:34:44;4.05;;;2.22;;
73264;SDS011;76371;51.008;14.088;2024-03-25T06:37:09;6.15;;;2.75;;
73264;SDS011;76371;51.008;14.088;2024-03-25T06:39:34;4.45;;;2.10;;
73264;SDS011;76371;51.008;14.088;2024-03-25T06:41:59;4.08;;;2.44;;
73264;SDS011;76371;51.008;14.088;2024-03-25T06:44:25;5.50;;;2.40;;
73264;SDS011;76371;51.008;14.088;2024-03-25T06:46:50;4.46;;;2.34;;
73264;SDS011;76371;51.008;14.088;2024-03-25T06:49:15;5.68;;;2.90;;
73264;SDS011;76371;51.008;14.088;2024-03-25T06:51:40;4.60;;;1.98;;
73264;SDS011;76371;51.008;14.088;2024-03-25T06:54:05;5.60;;;3.25;;
73264;SDS011;76371;51.008;14.088;2024-03-25T06:56:30;3.33;;;2.35;;
73264;SDS011;76371;51.008;14.088;2024-03-25T06:58:55;3.84;;;2.28;;
73264;SDS011;76371;51.008;14.088;2024-03-25T07:01:21;5.70;;;2.84;;
73264;SDS011;76371;51.008;14.088;2024-03-25T07:03:46;5.63;;;2.15;;
73264;SDS011;76371;51.008;14.088;2024-03-25T07:06:12;5.63;;;2.72;;
73264;SDS011;76371;51.008;14.088;2024-03-25T07:08:37;5.22;;;2.65;;
73264;SDS011;76371;51.008;14.088;2024-03-25T07:11:03;4.58;;;2.26;;
73264;SDS011;76371;51.008;14.088;2024-03-25T07:13:28;4.75;;;2.40;;
73264;SDS011;76371;51.008;14.088;2024-03-25T07:15:53;5.82;;;2.75;;
73264;SDS011;76371;51.008;14.088;2024-03-25T07:18:19;4.80;;;2.15;;
73264;SDS011;76371;51.008;14.088;2024-03-25T07:20:44;5.88;;;2.33;;
73264;SDS011;76371;51.008;14.088;2024-03-25T07:23:09;4.13;;;2.40;;
73264;SDS011;76371;51.008;14.088;2024-03-25T07:25:34;3.60;;;2.17;;
73264;SDS011;76371;51.008;14.088;2024-03-25T07:28:00;5.07;;;2.22;;
73264;SDS011;76371;51.008;14.088;2024-03-25T07:30:25;4.28;;;1.83;;
73264;SDS011;76371;51.008;14.088;2024-03-25T07:32:56;5.60;;;2.83;;
73264;SDS011;76371;51.008;14.088;2024-03-25T07:35:22;3.03;;;1.60;;
73264;SDS011;76371;51.008;14.088;2024-03-25T07:37:47;4.13;;;1.60;;
73264;SDS011;76371;51.008;14.088;2024-03-25T07:40:16;3.42;;;1.98;;
73264;SDS011;76371;51.008;14.088;2024-03-25T07:42:41;4.43;;;1.58;;
73264;SDS011;76371;51.008;14.088;2024-03-25T07:45:06;3.30;;;1.60;;
73264;SDS011;76371;51.008;14.088;2024-03-25T07:47:32;1.90;;;1.33;;
73264;SDS011;76371;51.008;14.088;2024-03-25T07:49:57;3.13;;;1.50;;
73264;SDS011;76371;51.008;14.088;2024-03-25T07:52:24;4.32;;;1.65;;
73264;SDS011;76371;51.008;14.088;2024-03-25T07:54:49;5.95;;;1.88;;
73264;SDS011;76371;51.008;14.088;2024-03-25T07:57:14;3.98;;;2.14;;
73264;SDS011;76371;51.008;14.088;2024-03-25T07:59:39;3.30;;;2.12;;
73264;SDS011;76371;51.008;14.088;2024-03-25T08:02:04;7.12;;;2.84;;
73264;SDS011;76371;51.008;14.088;2024-03-25T08:04:30;5.38;;;2.65;;
73264;SDS011;76371;51.008;14.088;2024-03-25T08:06:55;3.50;;;2.08;;
73264;SDS011;76371;51.008;14.088;2024-03-25T08:09:20;4.55;;;2.50;;
73264;SDS011;76371;51.008;14.088;2024-03-25T08:11:45;4.10;;;2.58;;
73264;SDS011;76371;51.008;14.088;2024-03-25T08:14:10;4.22;;;2.25;;
73264;SDS011;76371;51.008;14.088;2024-03-25T08:16:36;3.50;;;2.70;;
73264;SDS011;76371;51.008;14.088;2024-03-25T08:19:01;4.15;;;2.38;;
73264;SDS011;76371;51.008;14.088;2024-03-25T08:21:26;6.84;;;2.22;;
73264;SDS011;76371;51.008;14.088;2024-03-25T08:23:51;4.10;;;2.20;;
73264;SDS011;76371;51.008;14.088;2024-03-25T08:26:16;5.30;;;2.35;;
73264;SDS011;76371;51.008;14.088;2024-03-25T08:28:41;4.43;;;2.28;;
73264;SDS011;76371;51.008;14.088;2024-03-25T08:31:07;3.53;;;2.38;;
73264;SDS011;76371;51.008;14.088;2024-03-25T08:33:32;3.70;;;2.17;;
73264;SDS011;76371;51.008;14.088;2024-03-25T08:35:57;4.52;;;2.42;;
73264;SDS011;76371;51.008;14.088;2024-03-25T08:38:22;3.38;;;2.30;;
73264;SDS011;76371;51.008;14.088;2024-03-25T08:40:48;4.72;;;2.60;;
73264;SDS011;76371;51.008;14.088;2024-03-25T08:43:13;5.03;;;2.58;;
73264;SDS011;76371;51.008;14.088;2024-03-25T08:45:38;3.63;;;2.10;;
73264;SDS011;76371;51.008;14.088;2024-03-25T08:48:04;4.45;;;2.67;;
73264;SDS011;76371;51.008;14.088;2024-03-25T08:50:29;6.90;;;2.60;;
73264;SDS011;76371;51.008;14.088;2024-03-25T08:52:54;4.48;;;2.80;;
73264;SDS011;76371;51.008;14.088;2024-03-25T08:55:19;5.62;;;2.94;;
73264;SDS011;76371;51.008;14.088;2024-03-25T08:57:44;4.00;;;2.35;;
73264;SDS011;76371;51.008;14.088;2024-03-25T09:00:10;6.35;;;2.97;;
73264;SDS011;76371;51.008;14.088;2024-03-25T09:02:35;6.30;;;2.70;;
73264;SDS011;76371;51.008;14.088;2024-03-25T09:05:01;5.72;;;2.40;;
73264;SDS011;76371;51.008;14.088;2024-03-25T09:07:26;3.20;;;2.25;;
73264;SDS011;76371;51.008;14.088;2024-03-25T09:09:51;4.48;;;2.78;;
73264;SDS011;76371;51.008;14.088;2024-03-25T09:12:35;5.68;;;3.30;;
73264;SDS011;76371;51.008;14.088;2024-03-25T09:15:00;4.92;;;2.38;;
73264;SDS011;76371;51.008;14.088;2024-03-25T09:17:25;4.68;;;2.25;;
73264;SDS011;76371;51.008;14.088;2024-03-25T09:19:50;3.30;;;2.15;;
73264;SDS011;76371;51.008;14.088;2024-03-25T09:22:16;3.92;;;2.72;;
73264;SDS011;76371;51.008;14.088;2024-03-25T09:24:41;5.00;;;2.85;;
73264;SDS011;76371;51.008;14.088;2024-03-25T09:27:06;4.13;;;2.22;;
73264;SDS011;76371;51.008;14.088;2024-03-25T09:29:32;3.45;;;2.47;;
73264;SDS011;76371;51.008;14.088;2024-03-25T09:31:57;4.32;;;2.90;;
73264;SDS011;76371;51.008;14.088;2024-03-25T09:34:22;4.45;;;2.40;;
73264;SDS011;76371;51.008;14.088;2024-03-25T09:36:47;4.32;;;2.38;;
73264;SDS011;76371;51.008;14.088;2024-03-25T09:39:12;3.38;;;2.70;;
73264;SDS011;76371;51.008;14.088;2024-03-25T09:41:38;5.78;;;3.25;;
73264;SDS011;76371;51.008;14.088;2024-03-25T09:44:07;4.55;;;2.83;;
73264;SDS011;76371;51.008;14.088;2024-03-25T09:46:34;8.80;;;3.17;;
73264;SDS011;76371;51.008;14.088;2024-03-25T09:49:01;4.38;;;3.08;;
73264;SDS011;76371;51.008;14.088;2024-03-25T09:51:30;3.55;;;2.50;;
73264;SDS011;76371;51.008;14.088;2024-03-25T09:53:55;3.25;;;2.20;;
73264;SDS011;76371;51.008;14.088;2024-03-25T09:56:21;3.63;;;2.40;;
73264;SDS011;76371;51.008;14.088;2024-03-25T09:58:46;3.50;;;2.60;;
73264;SDS011;76371;51.008;14.088;2024-03-25T10:01:12;5.75;;;2.90;;
73264;SDS011;76371;51.008;14.088;2024-03-25T10:03:37;4.82;;;3.06;;
73264;SDS011;76371;51.008;14.088;2024-03-25T10:06:02;6.45;;;3.05;;
73264;SDS011;76371;51.008;14.088;2024-03-25T10:08:28;3.92;;;2.40;;
73264;SDS011;76371;51.008;14.088;2024-03-25T10:10:56;4.00;;;2.80;;
73264;SDS011;76371;51.008;14.088;2024-03-25T10:13:22;5.30;;;2.38;;
73264;SDS011;76371;51.008;14.088;2024-03-25T10:15:47;3.45;;;2.45;;
73264;SDS011;76371;51.008;14.088;2024-03-25T10:18:12;5.80;;;3.20;;
73264;SDS011;76371;51.008;14.088;2024-03-25T10:20:37;3.75;;;2.20;;
73264;SDS011;76371;51.008;14.088;2024-03-25T10:23:03;3.10;;;2.20;;
73264;SDS011;76371;51.008;14.088;2024-03-25T10:25:29;5.75;;;2.38;;
73264;SDS011;76371;51.008;14.088;2024-03-25T10:27:59;5.55;;;2.83;;
73264;SDS011;76371;51.008;14.088;2024-03-25T10:30:25;3.72;;;2.10;;
73264;SDS011;76371;51.008;14.088;2024-03-25T10:32:57;4.03;;;2.38;;
73264;SDS011;76371;51.008;14.088;2024-03-25T10:35:23;2.95;;;1.83;;
73264;SDS011;76371;51.008;14.088;2024-03-25T10:37:50;2.95;;;1.92;;
73264;SDS011;76371;51.008;14.088;2024-03-25T10:40:15;3.63;;;2.58;;
73264;SDS011;76371;51.008;14.088;2024-03-25T10:42:40;2.75;;;2.10;;
73264;SDS011;76371;51.008;14.088;2024-03-25T10:45:08;2.42;;;1.88;;
73264;SDS011;76371;51.008;14.088;2024-03-25T10:47:33;2.60;;;2.05;;
73264;SDS011;76371;51.008;14.088;2024-03-25T10:49:59;3.08;;;2.00;;
73264;SDS011;76371;51.008;14.088;2024-03-25T10:52:24;3.50;;;2.28;;
73264;SDS011;76371;51.008;14.088;2024-03-25T10:54:50;3.47;;;2.08;;
73264;SDS011;76371;51.008;14.088;2024-03-25T10:57:16;3.95;;;2.30;;
73264;SDS011;76371;51.008;14.088;2024-03-25T10:59:45;3.88;;;2.33;;
73264;SDS011;76371;51.008;14.088;2024-03-25T11:02:10;3.03;;;2.05;;
73264;SDS011;76371;51.008;14.088;2024-03-25T11:04:35;3.45;;;2.22;;
73264;SDS011;76371;51.008;14.088;2024-03-25T11:09:32;5.38;;;2.17;;
73264;SDS011;76371;51.008;14.088;2024-03-25T11:11:58;4.47;;;2.35;;
73264;SDS011;76371;51.008;14.088;2024-03-25T11:14:26;5.93;;;2.03;;
73264;SDS011;76371;51.008;14.088;2024-03-25T11:16:54;2.95;;;1.98;;
73264;SDS011;76371;51.008;14.088;2024-03-25T11:19:20;4.00;;;2.00;;
73264;SDS011;76371;51.008;14.088;2024-03-25T11:21:45;3.85;;;2.42;;
73264;SDS011;76371;51.008;14.088;2024-03-25T11:24:11;4.03;;;2.03;;
73264;SDS011;76371;51.008;14.088;2024-03-25T11:26:40;4.22;;;2.67;;
73264;SDS011;76371;51.008;14.088;2024-03-25T11:29:05;3.35;;;2.10;;
73264;SDS011;76371;51.008;14.088;2024-03-25T11:31:32;4.25;;;2.13;;
73264;SDS011;76371;51.008;14.088;2024-03-25T11:34:02;2.20;;;1.85;;
73264;SDS011;76371;51.008;14.088;2024-03-25T11:36:28;6.38;;;2.40;;
73264;SDS011;76371;51.008;14.088;2024-03-25T11:38:59;3.28;;;1.63;;
73264;SDS011;76371;51.008;14.088;2024-03-25T11:41:24;4.43;;;1.73;;
73264;SDS011;76371;51.008;14.088;2024-03-25T11:43:50;4.40;;;1.98;;
73264;SDS011;76371;51.008;14.088;2024-03-25T11:46:18;2.65;;;1.80;;
73264;SDS011;76371;51.008;14.088;2024-03-25T11:48:44;2.75;;;1.88;;
73264;SDS011;76371;51.008;14.088;2024-03-25T11:51:11;5.20;;;2.08;;
73264;SDS011;76371;51.008;14.088;2024-03-25T11:53:36;2.33;;;2.00;;
73264;SDS011;76371;51.008;14.088;2024-03-25T11:56:01;2.33;;;1.55;;
73264;SDS011;76371;51.008;14.088;2024-03-25T11:58:26;4.18;;;2.28;;
73264;SDS011;76371;51.008;14.088;2024-03-25T12:00:51;4.97;;;2.15;;
73264;SDS011;76371;51.008;14.088;2024-03-25T12:03:17;3.10;;;1.80;;
73264;SDS011;76371;51.008;14.088;2024-03-25T12:05:46;3.03;;;1.65;;
73264;SDS011;76371;51.008;14.088;2024-03-25T12:08:11;4.93;;;2.13;;
73264;SDS011;76371;51.008;14.088;2024-03-25T12:10:37;3.70;;;1.77;;
73264;SDS011;76371;51.008;14.088;2024-03-25T12:13:21;2.67;;;1.70;;
73264;SDS011;76371;51.008;14.088;2024-03-25T12:15:47;2.47;;;1.60;;
73264;SDS011;76371;51.008;14.088;2024-03-25T12:18:13;2.60;;;1.60;;
73264;SDS011;76371;51.008;14.088;2024-03-25T12:20:38;3.10;;;1.77;;
73264;SDS011;76371;51.008;14.088;2024-03-25T12:23:04;4.43;;;2.00;;
73264;SDS011;76371;51.008;14.088;2024-03-25T12:25:29;4.28;;;1.75;;
73264;SDS011;76371;51.008;14.088;2024-03-25T12:27:54;2.15;;;1.27;;
73264;SDS011;76371;51.008;14.088;2024-03-25T12:30:19;1.40;;;1.25;;
73264;SDS011;76371;51.008;14.088;2024-03-25T12:32:44;4.53;;;1.80;;
73264;SDS011;76371;51.008;14.088;2024-03-25T12:35:11;2.30;;;1.52;;
73264;SDS011;76371;51.008;14.088;2024-03-25T12:37:40;5.25;;;2.55;;
73264;SDS011;76371;51.008;14.088;2024-03-25T12:40:06;3.38;;;1.70;;
73264;SDS011;76371;51.008;14.088;2024-03-25T12:42:34;2.80;;;1.90;;
73264;SDS011;76371;51.008;14.088;2024-03-25T12:44:59;3.30;;;2.20;;
73264;SDS011;76371;51.008;14.088;2024-03-25T12:47:24;4.38;;;2.55;;
73264;SDS011;76371;51.008;14.088;2024-03-25T12:49:50;3.08;;;2.00;;
73264;SDS011;76371;51.008;14.088;2024-03-25T12:52:15;2.95;;;1.80;;
73264;SDS011;76371;51.008;14.088;2024-03-25T12:54:40;3.75;;;2.00;;
73264;SDS011;76371;51.008;14.088;2024-03-25T12:57:06;3.28;;;1.52;;
73264;SDS011;76371;51.008;14.088;2024-03-25T12:59:31;2.30;;;1.40;;
73264;SDS011;76371;51.008;14.088;2024-03-25T13:01:57;1.40;;;1.30;;
73264;SDS011;76371;51.008;14.088;2024-03-25T13:04:22;2.75;;;1.40;;
73264;SDS011;76371;51.008;14.088;2024-03-25T13:06:47;3.20;;;1.33;;
73264;SDS011;76371;51.008;14.088;2024-03-25T13:09:12;1.23;;;1.10;;
73264;SDS011;76371;51.008;14.088;2024-03-25T13:11:37;1.65;;;1.15;;
73264;SDS011;76371;51.008;14.088;2024-03-25T13:14:03;2.33;;;1.80;;
73264;SDS011;76371;51.008;14.088;2024-03-25T13:16:28;1.65;;;1.23;;
73264;SDS011;76371;51.008;14.088;2024-03-25T13:18:54;2.70;;;1.55;;
73264;SDS011;76371;51.008;14.088;2024-03-25T13:21:19;4.15;;;1.40;;
73264;SDS011;76371;51.008;14.088;2024-03-25T13:23:44;2.58;;;1.80;;
73264;SDS011;76371;51.008;14.088;2024-03-25T13:26:10;2.75;;;1.85;;
73264;SDS011;76371;51.008;14.088;2024-03-25T13:28:35;2.95;;;1.70;;
73264;SDS011;76371;51.008;14.088;2024-03-25T13:31:00;3.45;;;1.90;;
73264;SDS011;76371;51.008;14.088;2024-03-25T13:33:25;2.38;;;1.80;;
73264;SDS011;76371;51.008;14.088;2024-03-25T13:35:50;3.10;;;2.06;;
73264;SDS011;76371;51.008;14.088;2024-03-25T13:38:15;3.47;;;1.90;;
73264;SDS011;76371;51.008;14.088;2024-03-25T13:40:40;2.83;;;1.77;;
73264;SDS011;76371;51.008;14.088;2024-03-25T13:43:06;2.20;;;1.58;;
73264;SDS011;76371;51.008;14.088;2024-03-25T13:45:34;3.20;;;1.70;;
73264;SDS011;76371;51.008;14.088;2024-03-25T13:47:59;5.97;;;1.15;;
73264;SDS011;76371;51.008;14.088;2024-03-25T13:50:24;2.72;;;1.40;;
73264;SDS011;76371;51.008;14.088;2024-03-25T13:52:49;4.43;;;1.83;;
73264;SDS011;76371;51.008;14.088;2024-03-25T13:55:15;2.65;;;1.50;;
73264;SDS011;76371;51.008;14.088;2024-03-25T13:57:41;6.25;;;1.85;;
73264;SDS011;76371;51.008;14.088;2024-03-25T14:00:06;1.75;;;1.50;;
73264;SDS011;76371;51.008;14.088;2024-03-25T14:02:35;3.25;;;1.63;;
73264;SDS011;76371;51.008;14.088;2024-03-25T14:05:01;2.15;;;1.67;;
73264;SDS011;76371;51.008;14.088;2024-03-25T14:07:26;2.80;;;1.60;;
73264;SDS011;76371;51.008;14.088;2024-03-25T14:09:52;2.40;;;1.45;;
73264;SDS011;76371;51.008;14.088;2024-03-25T14:12:18;3.42;;;1.90;;
73264;SDS011;76371;51.008;14.088;2024-03-25T14:14:43;3.40;;;1.50;;
73264;SDS011;76371;51.008;14.088;2024-03-25T14:17:08;3.55;;;1.60;;
73264;SDS011;76371;51.008;14.088;2024-03-25T14:19:33;4.70;;;1.92;;
73264;SDS011;76371;51.008;14.088;2024-03-25T14:21:58;4.30;;;1.75;;
73264;SDS011;76371;51.008;14.088;2024-03-25T14:24:23;2.15;;;1.13;;
73264;SDS011;76371;51.008;14.088;2024-03-25T14:26:48;2.15;;;1.48;;
73264;SDS011;76371;51.008;14.088;2024-03-25T14:29:14;1.80;;;1.20;;
73264;SDS011;76371;51.008;14.088;2024-03-25T14:31:39;1.83;;;1.10;;
73264;SDS011;76371;51.008;14.088;2024-03-25T14:34:05;3.10;;;1.48;;
73264;SDS011;76371;51.008;14.088;2024-03-25T14:36:30;3.10;;;1.35;;
73264;SDS011;76371;51.008;14.088;2024-03-25T14:38:55;1.60;;;1.23;;
73264;SDS011;76371;51.008;14.088;2024-03-25T14:41:20;1.42;;;0.70;;
73264;SDS011;76371;51.008;14.088;2024-03-25T14:43:46;2.83;;;1.45;;
73264;SDS011;76371;51.008;14.088;2024-03-25T14:46:13;3.60;;;1.50;;
73264;SDS011;76371;51.008;14.088;2024-03-25T14:48:38;2.97;;;1.10;;
73264;SDS011;76371;51.008;14.088;2024-03-25T14:51:03;2.80;;;1.50;;
73264;SDS011;76371;51.008;14.088;2024-03-25T14:53:29;2.83;;;1.30;;
73264;SDS011;76371;51.008;14.088;2024-03-25T14:55:54;2.03;;;1.00;;
73264;SDS011;76371;51.008;14.088;2024-03-25T14:58:19;3.65;;;1.40;;
73264;SDS011;76371;51.008;14.088;2024-03-25T15:00:44;2.17;;;1.45;;
73264;SDS011;76371;51.008;14.088;2024-03-25T15:03:10;4.05;;;1.52;;
73264;SDS011;76371;51.008;14.088;2024-03-25T15:05:35;2.33;;;1.40;;
73264;SDS011;76371;51.008;14.088;2024-03-25T15:08:01;3.75;;;1.40;;
73264;SDS011;76371;51.008;14.088;2024-03-25T15:10:26;3.70;;;1.60;;
73264;SDS011;76371;51.008;14.088;2024-03-25T15:12:52;3.20;;;1.75;;